Time;durP1;ratioP1;P1;durP2;ratioP2;P2;SDS_P1;SDS_P2;PMS_P1;PMS_P2;Temp;Humidity;BMP_temperature;BMP_pressure;BME280_temperature;BME280_humidity;BME280_pressure;Samples;Min_cycle;Max_cycle;Signal;HPM_P1;HPM_P2
2022/10/14 00:00:32;;;;;;;;;;;;;;;;;;4714913;30;19934;-88
2022/10/14 00:02:58;;;;;;;;;;;;;;;;;;4714950;30;20925;-88
2022/10/14 00:05:30;;;;;;;;;;;;;;;;;;4721155;30;20417;-89
2022/10/14 00:07:56;;;;;;;;;;;;;;;;;;4716144;30;20327;-89
2022/10/14 00:10:22;;;;;;;;;;;;;;;;;;4724577;30;19996;-89
2022/10/14 00:12:57;;;;;;;;;;;;;;;;;;4717521;30;19930;-89
2022/10/14 00:15:23;;;;;;;;;;;;;;;;;;4735810;30;20015;-89
2022/10/14 00:17:52;;;;;;;;;;;;;;;;;;4722814;30;19937;-89
2022/10/14 00:20:18;;;;;;;;;;;;;;;;;;4721425;30;20719;-90
2022/10/14 00:22:44;;;;;;;;;;;;;;;;;;4721159;30;19991;-89
2022/10/14 00:25:10;;;;;;;;;;;;;;;;;;4715556;30;19937;-89
2022/10/14 00:27:36;;;;;;;;;;;;;;;;;;4723677;30;20072;-89
2022/10/14 00:30:08;;;;;;;;;;;;;;;;;;4711092;30;19957;-89
2022/10/14 00:32:34;;;;;;;;;;;;;;;;;;4718867;29;19934;-89
2022/10/14 00:35:05;;;;;;;;;;;;;;;;;;4717006;30;20159;-89
2022/10/14 00:37:34;;;;;;;;;;;;;;;;;;4728436;30;20443;-88
2022/10/14 00:40:03;;;;;;;;;;;;;;;;;;4711360;30;20402;-88
2022/10/14 00:42:36;;;;;;;;;;;;;;;;;;4724633;30;20325;-87
2022/10/14 00:45:06;;;;;;;;;;;;;;;;;;4723601;30;20425;-88
2022/10/14 00:47:31;;;;;;;;;;;;;;;;;;4720467;30;20340;-88
2022/10/14 00:49:57;;;;;;;;;;;;;;;;;;4717655;30;19934;-88
2022/10/14 00:52:32;;;;;;;;;;;;;;;;;;4726511;30;20409;-89
2022/10/14 00:54:58;;;;;;;;;;;;;;;;;;4721042;30;20110;-88
2022/10/14 00:57:27;;;;;;;;;;;;;;;;;;4724648;30;19930;-87
2022/10/14 00:59:56;;;;;;;;;;;;;;;;;;4718810;30;20405;-88
2022/10/14 01:02:22;;;;;;;;;;;;;;;;;;4738042;30;19940;-87
2022/10/14 01:04:51;;;;;;;;;;;;;;;;;;4723991;30;20266;-87
2022/10/14 01:07:23;;;;;;;;;;;;;;;;;;4724288;30;19934;-88
2022/10/14 01:09:49;;;;;;;;;;;;;;;;;;4724603;30;20290;-87
2022/10/14 01:12:15;;;;;;;;;;;;;;;;;;4720779;29;20467;-88
2022/10/14 01:14:44;;;;;;;;;;;;;;;;;;4712801;30;19984;-87
2022/10/14 01:17:13;;;;;;;;;;;;;;;;;;4725617;30;20024;-87
2022/10/14 01:19:45;;;;;;;;;;;;;;;;;;4723315;30;20398;-87
2022/10/14 01:22:11;;;;;;;;;;;;;;;;;;4719669;30;21542;-88
2022/10/14 01:24:37;;;;;;;;;;;;;;;;;;4699190;30;19926;-88
2022/10/14 01:27:03;;;;;;;;;;;;;;;;;;4717562;30;19926;-89
2022/10/14 01:29:32;;;;;;;;;;;;;;;;;;4723297;30;20410;-89
2022/10/14 01:31:58;;;;;;;;;;;;;;;;;;4718914;30;19934;-89
2022/10/14 01:34:26;;;;;;;;;;;;;;;;;;4710589;30;19937;-88
2022/10/14 01:36:58;;;;;;;;;;;;;;;;;;4717641;30;20033;-90
2022/10/14 01:39:24;;;;;;;;;;;;;;;;;;4721487;30;20529;-89
2022/10/14 01:41:53;;;;;;;;;;;;;;;;;;4704313;30;20330;-88
2022/10/14 01:44:21;;;;;;;;;;;;;;;;;;4719014;30;20410;-88
2022/10/14 01:46:54;;;;;;;;;;;;;;;;;;4701222;30;19941;-88
2022/10/14 01:49:20;;;;;;;;;;;;;;;;;;4723555;30;19981;-88
2022/10/14 01:51:46;;;;;;;;;;;;;;;;;;4723579;30;20351;-88
2022/10/14 01:54:12;;;;;;;;;;;;;;;;;;4716585;30;20572;-88
2022/10/14 01:56:40;;;;;;;;;;;;;;;;;;4708285;30;19930;-88
2022/10/14 01:59:06;;;;;;;;;;;;;;;;;;4700565;30;20373;-88
2022/10/14 02:01:35;;;;;;;;;;;;;;;;;;4703990;30;19934;-87
2022/10/14 02:04:01;;;;;;;;;;;;;;;;;;4718377;30;21481;-88
2022/10/14 02:06:33;;;;;;;;;;;;;;;;;;4724430;30;19962;-89
2022/10/14 02:08:59;;;;;;;;;;;;;;;;;;4703607;30;19980;-88
2022/10/14 02:11:25;;;;;;;;;;;;;;;;;;4719617;30;20021;-89
2022/10/14 02:13:51;;;;;;;;;;;;;;;;;;4728376;30;19941;-89
2022/10/14 02:16:17;;;;;;;;;;;;;;;;;;4704179;30;20003;-88
2022/10/14 02:18:43;;;;;;;;;;;;;;;;;;4722776;30;20402;-88
2022/10/14 02:21:09;;;;;;;;;;;;;;;;;;4699773;30;19992;-88
2022/10/14 02:23:36;;;;;;;;;;;;;;;;;;4706725;30;19969;-88
2022/10/14 02:26:02;;;;;;;;;;;;;;;;;;4702064;30;19940;-88
2022/10/14 02:28:31;;;;;;;;;;;;;;;;;;4706179;30;21409;-88
2022/10/14 02:31:02;;;;;;;;;;;;;;;;;;4715825;30;19999;-88
2022/10/14 02:33:28;;;;;;;;;;;;;;;;;;4718532;30;20044;-88
2022/10/14 02:35:54;;;;;;;;;;;;;;;;;;4719147;30;19926;-88
2022/10/14 02:38:35;;;;;;;;;;;;;;;;;;4720203;30;20377;-89
2022/10/14 02:41:01;;;;;;;;;;;;;;;;;;4704032;30;19930;-89
2022/10/14 02:43:27;;;;;;;;;;;;;;;;;;4704690;30;19930;-89
2022/10/14 02:45:54;;;;;;;;;;;;;;;;;;4702883;29;19929;-89
2022/10/14 02:48:22;;;;;;;;;;;;;;;;;;4705103;30;20033;-88
2022/10/14 02:50:55;;;;;;;;;;;;;;;;;;4710024;30;19988;-89
2022/10/14 02:53:26;;;;;;;;;;;;;;;;;;4721943;30;19949;-89
2022/10/14 02:56:00;;;;;;;;;;;;;;;;;;4703573;30;19941;-89
2022/10/14 02:58:26;;;;;;;;;;;;;;;;;;4700796;30;19941;-88
2022/10/14 03:00:52;;;;;;;;;;;;;;;;;;4715404;30;19938;-89
2022/10/14 03:03:20;;;;;;;;;;;;;;;;;;4701621;30;19927;-89
2022/10/14 03:05:46;;;;;;;;;;;;;;;;;;4723134;30;20049;-89
2022/10/14 03:08:15;;;;;;;;;;;;;;;;;;4700790;29;21495;-88
2022/10/14 03:10:44;;;;;;;;;;;;;;;;;;4719328;30;20064;-88
2022/10/14 03:13:10;;;;;;;;;;;;;;;;;;4701324;30;19934;-88
2022/10/14 03:15:39;;;;;;;;;;;;;;;;;;4701257;30;19960;-88
2022/10/14 03:18:05;;;;;;;;;;;;;;;;;;4715213;30;20649;-88
2022/10/14 03:20:36;;;;;;;;;;;;;;;;;;4705000;29;20504;-88
2022/10/14 03:23:05;;;;;;;;;;;;;;;;;;4712346;30;20314;-88
2022/10/14 03:25:31;;;;;;;;;;;;;;;;;;4707013;30;19936;-88
2022/10/14 03:27:57;;;;;;;;;;;;;;;;;;4703452;30;19937;-89
2022/10/14 03:30:23;;;;;;;;;;;;;;;;;;4723632;30;19935;-89
2022/10/14 03:32:54;;;;;;;;;;;;;;;;;;4704506;30;20355;-89
2022/10/14 03:35:20;;;;;;;;;;;;;;;;;;4707620;30;20294;-89
2022/10/14 03:37:54;;;;;;;;;;;;;;;;;;4722030;30;20561;-89
2022/10/14 03:40:23;;;;;;;;;;;;;;;;;;4734384;30;19945;-89
2022/10/14 03:42:55;;;;;;;;;;;;;;;;;;4701423;30;20033;-89
2022/10/14 03:45:31;;;;;;;;;;;;;;;;;;;;;
2022/10/14 03:47:57;;;;;;;;;;;;;;;;;;4715023;30;20889;-87
2022/10/14 03:50:23;;;;;;;;;;;;;;;;;;4709653;30;20503;-88
2022/10/14 03:52:52;;;;;;;;;;;;;;;;;;4699625;30;19940;-88
2022/10/14 03:55:18;;;;;;;;;;;;;;;;;;4713411;30;23226;-87
2022/10/14 03:57:45;;;;;;;;;;;;;;;;;;4717785;30;19976;-89
2022/10/14 04:00:14;;;;;;;;;;;;;;;;;;4711396;30;19984;-87
2022/10/14 04:02:43;;;;;;;;;;;;;;;;;;4704206;30;19949;-88
2022/10/14 04:05:11;;;;;;;;;;;;;;;;;;4717727;30;20864;-88
2022/10/14 04:07:37;;;;;;;;;;;;;;;;;;4718406;30;20408;-88
2022/10/14 04:10:04;;;;;;;;;;;;;;;;;;4714840;30;20420;-89
2022/10/14 04:12:35;;;;;;;;;;;;;;;;;;4703973;30;19937;-88
2022/10/14 04:15:03;;;;;;;;;;;;;;;;;;4728670;30;20357;-88
2022/10/14 04:17:36;;;;;;;;;;;;;;;;;;4720714;30;19933;-88
2022/10/14 04:20:04;;;;;;;;;;;;;;;;;;4696936;30;19934;-88
2022/10/14 04:22:32;;;;;;;;;;;;;;;;;;4722464;30;20029;-89
2022/10/14 04:24:58;;;;;;;;;;;;;;;;;;4715321;30;20382;-88
2022/10/14 04:27:33;;;;;;;;;;;;;;;;;;4716287;30;19926;-88
2022/10/14 04:30:04;;;;;;;;;;;;;;;;;;4699908;30;19930;-88
2022/10/14 04:32:39;;;;;;;;;;;;;;;;;;4703108;30;20033;-88
2022/10/14 04:35:14;;;;;;;;;;;;;;;;;;4719682;29;20401;-88
2022/10/14 04:37:53;;;;;;;;;;;;;;;;;;;;;
2022/10/14 04:40:24;;;;;;;;;;;;;;;;;;4718493;29;20028;-88
2022/10/14 04:42:53;;;;;;;;;;;;;;;;;;4720255;30;19926;-88
2022/10/14 04:45:25;;;;;;;;;;;;;;;;;;4704320;30;20021;-89
2022/10/14 04:47:51;;;;;;;;;;;;;;;;;;4713647;30;19934;-89
2022/10/14 04:50:19;;;;;;;;;;;;;;;;;;4704009;30;20361;-88
2022/10/14 04:53:01;;;;;;;;;;;;;;;;;;4715370;30;19926;-88
2022/10/14 04:55:30;;;;;;;;;;;;;;;;;;4726122;30;19935;-88
2022/10/14 04:57:56;;;;;;;;;;;;;;;;;;4723562;29;19934;-87
2022/10/14 05:00:22;;;;;;;;;;;;;;;;;;4709724;30;20471;-88
2022/10/14 05:02:57;;;;;;;;;;;;;;;;;;4716441;30;20466;-90
2022/10/14 05:05:26;;;;;;;;;;;;;;;;;;4714598;30;19930;-88
2022/10/14 05:07:54;;;;;;;;;;;;;;;;;;4718092;29;19938;-88
2022/10/14 05:10:23;;;;;;;;;;;;;;;;;;4726433;30;19926;-88
2022/10/14 05:13:00;;;;;;;;;;;;;;;;;;4713695;30;19931;-89
2022/10/14 05:15:32;;;;;;;;;;;;;;;;;;4707543;30;19926;-89
2022/10/14 05:17:58;;;;;;;;;;;;;;;;;;4701905;30;19934;-89
2022/10/14 05:20:24;;;;;;;;;;;;;;;;;;4721447;30;19953;-88
2022/10/14 05:22:53;;;;;;;;;;;;;;;;;;4725876;30;20310;-88
2022/10/14 05:25:24;;;;;;;;;;;;;;;;;;4710732;30;19957;-88
2022/10/14 05:27:56;;;;;;;;;;;;;;;;;;4731111;30;20517;-88
2022/10/14 05:30:24;;;;;;;;;;;;;;;;;;4723604;30;20025;-89
2022/10/14 05:32:56;;;;;;;;;;;;;;;;;;4727077;30;20613;-89
2022/10/14 05:35:22;;;;;;;;;;;;;;;;;;4745149;30;19934;-91
2022/10/14 05:37:48;;;;;;;;;;;;;;;;;;4728112;30;19930;-88
2022/10/14 05:40:23;;;;;;;;;;;;;;;;;;4724371;30;19988;-89
2022/10/14 05:42:49;;;;;;;;;;;;;;;;;;4712684;30;19930;-89
2022/10/14 05:45:20;;;;;;;;;;;;;;;;;;4712555;30;19934;-89
2022/10/14 05:47:46;;;;;;;;;;;;;;;;;;4727011;30;19947;-88
2022/10/14 05:50:15;;;;;;;;;;;;;;;;;;4707962;30;20381;-88
2022/10/14 05:52:41;;;;;;;;;;;;;;;;;;4717551;30;20010;-88
2022/10/14 05:55:07;;;;;;;;;;;;;;;;;;4714050;29;19940;-89
2022/10/14 05:57:43;;;;;;;;;;;;;;;;;;4695894;30;20003;-89
2022/10/14 06:00:12;;;;;;;;;;;;;;;;;;4713584;30;20311;-90
2022/10/14 06:02:38;;;;;;;;;;;;;;;;;;4714993;30;20680;-89
2022/10/14 06:05:07;;;;;;;;;;;;;;;;;;4712186;30;19941;-90
2022/10/14 06:10:26;;;;;;;;;;;;;;;;;;4714595;30;19934;-90
2022/10/14 06:12:54;;;;;;;;;;;;;;;;;;4701730;30;19982;-90
2022/10/14 06:15:41;;;;;;;;;;;;;;;;;;4718296;30;19977;-90
2022/10/14 06:18:07;;;;;;;;;;;;;;;;;;4697134;30;21718;-91
2022/10/14 06:20:34;;;;;;;;;;;;;;;;;;4721393;30;19930;-90
2022/10/14 06:23:05;;;;;;;;;;;;;;;;;;4725287;30;19965;-90
2022/10/14 06:25:33;;;;;;;;;;;;;;;;;;4727326;30;19933;-91
2022/10/14 06:28:02;;;;;;;;;;;;;;;;;;4699835;30;19934;-90
2022/10/14 06:30:46;;;;;;;;;;;;;;;;;;4673042;30;19938;-91
2022/10/14 06:33:15;;;;;;;;;;;;;;;;;;4680575;30;22029;-95
2022/10/14 06:35:41;;;;;;;;;;;;;;;;;;4691667;30;19978;-91
2022/10/14 06:38:15;;;;;;;;;;;;;;;;;;4688625;30;20035;-91
2022/10/14 06:40:47;;;;;;;;;;;;;;;;;;4681037;30;22888;-91
2022/10/14 06:43:28;;;;;;;;;;;;;;;;;;4678888;30;20033;-91
2022/10/14 06:46:04;;;;;;;;;;;;;;;;;;4686499;30;19988;-91
2022/10/14 06:48:30;;;;;;;;;;;;;;;;;;4689775;30;19966;-90
2022/10/14 06:51:02;;;;;;;;;;;;;;;;;;4700099;30;19926;-90
2022/10/14 06:53:30;;;;;;;;;;;;;;;;;;4689288;30;19941;-91
2022/10/14 06:56:05;;;;;;;;;;;;;;;;;;4694111;30;19957;-91
2022/10/14 06:58:34;;;;;;;;;;;;;;;;;;4696506;30;19937;-91
2022/10/14 07:01:05;;;;;;;;;;;;;;;;;;4724628;30;20413;-90
2022/10/14 07:03:39;;;;;;;;;;;;;;;;;;4729792;30;19933;-90
2022/10/14 07:06:08;;;;;;;;;;;;;;;;;;4722103;30;20697;-90
2022/10/14 07:08:39;;;;;;;;;;;;;;;;;;4702350;30;19934;-91
2022/10/14 07:11:08;;;;;;;;;;;;;;;;;;4716834;30;19934;-90
2022/10/14 07:13:36;;;;;;;;;;;;;;;;;;4715197;30;20370;-91
2022/10/14 07:16:04;;;;;;;;;;;;;;;;;;4694766;30;19930;-90
2022/10/14 07:18:33;;;;;;;;;;;;;;;;;;4708218;30;19934;-91
2022/10/14 07:21:06;;;;;;;;;;;;;;;;;;4708957;30;19949;-90
2022/10/14 07:23:59;;;;;;;;;;;;;;;;;;4716534;30;19961;-91
2022/10/14 07:26:30;;;;;;;;;;;;;;;;;;4701308;30;20398;-91
2022/10/14 07:29:01;;;;;;;;;;;;;;;;;;4710873;30;20507;-91
2022/10/14 07:31:43;;;;;;;;;;;;;;;;;;4714094;30;19930;-91
2022/10/14 07:39:50;;;;;;;;;;;;;;;;;;4736365;30;19930;-92
2022/10/14 07:42:33;;;;;;;;;;;;;;;;;;4726058;30;19934;-91
2022/10/14 07:45:05;;;;;;;;;;;;;;;;;;4724451;30;19937;-90
2022/10/14 07:47:32;;;;;;;;;;;;;;;;;;4710560;30;20528;-92
2022/10/14 07:50:03;;;;;;;;;;;;;;;;;;4693035;30;20912;-92
2022/10/14 07:52:48;;;;;;;;;;;;;;;;;;4696370;30;20001;-91
2022/10/14 07:55:20;;;;;;;;;;;;;;;;;;4673712;30;20687;-91
2022/10/14 07:57:54;;;;;;;;;;;;;;;;;;4692477;30;19930;-91
2022/10/14 08:00:26;;;;;;;;;;;;;;;;;;4686533;30;20374;-89
2022/10/14 08:03:12;;;;;;;;;;;;;;;;;;4704385;30;19930;-91
2022/10/14 08:05:49;;;;;;;;;;;;;;;;;;4693616;30;20017;-91
2022/10/14 08:11:32;;;;;;;;;;;;;;;;;;4685400;30;19956;-92
2022/10/14 08:14:29;;;;;;;;;;;;;;;;;;;;;
2022/10/14 08:16:56;;;;;;;;;;;;;;;;;;4682970;30;19935;-91
2022/10/14 08:19:30;;;;;;;;;;;;;;;;;;4717042;30;20457;-91
2022/10/14 08:21:59;;;;;;;;;;;;;;;;;;4703491;30;20049;-92
2022/10/14 08:24:54;;;;;;;;;;;;;;;;;;;;;
2022/10/14 08:27:49;;;;;;;;;;;;;;;;;;4715763;30;19969;-91
2022/10/14 08:30:36;;;;;;;;;;;;;;;;;;4710456;30;20366;-92
2022/10/14 08:33:16;;;;;;;;;;;;;;;;;;4667206;30;20028;-92
2022/10/14 08:44:43;;;;;;;;;;;;;;;;;;4666316;30;19934;-94
2022/10/14 08:47:24;;;;;;;;;;;;;;;;;;4669379;30;21537;-93
2022/10/14 08:50:06;;;;;;;;;;;;;;;;;;;;;
2022/10/14 08:52:37;;;;;;;;;;;;;;;;;;4674229;30;19935;-92
2022/10/14 08:55:21;;;;;;;;;;;;;;;;;;4684855;30;19939;-91
2022/10/14 08:57:56;;;;;;;;;;;;;;;;;;4706838;30;19935;-91
2022/10/14 09:00:42;;;;;;;;;;;;;;;;;;;;;
2022/10/14 09:03:25;;;;;;;;;;;;;;;;;;4726918;30;20367;-92
2022/10/14 09:09:15;;;;;;;;;;;;;;;;;;;;;
2022/10/14 09:12:20;;;;;;;;;;;;;;;;;;4725153;30;19980;-93
2022/10/14 09:20:33;;;;;;;;;;;;;;;;;;4662095;30;19982;-93
2022/10/14 09:26:07;;;;;;;;;;;;;;;;;;4681277;30;19939;-92
2022/10/14 09:28:55;;;;;;;;;;;;;;;;;;;;;
2022/10/14 09:31:42;;;;;;;;;;;;;;;;;;4635754;30;20072;-93
2022/10/14 09:34:27;;;;;;;;;;;;;;;;;;;;;
2022/10/14 09:39:50;;;;;;;;;;;;;;;;;;4681281;30;19978;-92
2022/10/14 09:42:22;;;;;;;;;;;;;;;;;;4674043;30;19985;-91
2022/10/14 09:47:43;;;;;;;;;;;;;;;;;;4672059;30;19977;-91
2022/10/14 09:50:27;;;;;;;;;;;;;;;;;;4696411;30;20017;-91
2022/10/14 09:52:56;;;;;;;;;;;;;;;;;;4687385;30;20005;-91
2022/10/14 09:55:23;;;;;;;;;;;;;;;;;;4678573;30;20328;-91
2022/10/14 09:57:54;;;;;;;;;;;;;;;;;;4677322;30;19953;-90
2022/10/14 10:00:20;;;;;;;;;;;;;;;;;;4723712;30;20529;-90
2022/10/14 10:02:47;;;;;;;;;;;;;;;;;;4707275;30;19934;-91
2022/10/14 10:05:24;;;;;;;;;;;;;;;;;;4682314;30;20025;-90
2022/10/14 10:08:02;;;;;;;;;;;;;;;;;;4696600;30;20577;-90
2022/10/14 10:13:21;;;;;;;;;;;;;;;;;;4675004;30;19978;-89
2022/10/14 10:15:56;;;;;;;;;;;;;;;;;;4669132;30;20021;-89
2022/10/14 10:18:25;;;;;;;;;;;;;;;;;;4701059;30;19935;-90
2022/10/14 10:20:54;;;;;;;;;;;;;;;;;;4683596;30;19946;-89
2022/10/14 10:23:26;;;;;;;;;;;;;;;;;;4698740;30;20033;-90
2022/10/14 10:25:57;;;;;;;;;;;;;;;;;;4675809;30;20458;-89
2022/10/14 10:28:33;;;;;;;;;;;;;;;;;;4684142;30;19944;-90
2022/10/14 10:31:14;;;;;;;;;;;;;;;;;;4692476;30;19962;-90
2022/10/14 10:33:49;;;;;;;;;;;;;;;;;;4682531;30;20023;-89
2022/10/14 10:36:21;;;;;;;;;;;;;;;;;;4702019;30;20026;-89
2022/10/14 10:38:57;;;;;;;;;;;;;;;;;;4708174;30;19934;-88
2022/10/14 10:41:31;;;;;;;;;;;;;;;;;;4715212;30;19939;-89
2022/10/14 10:43:57;;;;;;;;;;;;;;;;;;4708898;30;20290;-89
2022/10/14 10:46:29;;;;;;;;;;;;;;;;;;4712413;30;19930;-89
2022/10/14 10:49:01;;;;;;;;;;;;;;;;;;4722744;30;19930;-89
2022/10/14 10:51:28;;;;;;;;;;;;;;;;;;4706776;30;19956;-89
2022/10/14 10:53:56;;;;;;;;;;;;;;;;;;4721551;30;20420;-89
2022/10/14 10:56:33;;;;;;;;;;;;;;;;;;4706846;30;20037;-89
2022/10/14 10:59:05;;;;;;;;;;;;;;;;;;4704411;30;19977;-89
2022/10/14 11:01:35;;;;;;;;;;;;;;;;;;4710066;30;19942;-88
2022/10/14 11:04:08;;;;;;;;;;;;;;;;;;4714143;30;19936;-89
2022/10/14 11:12:14;;;;;;;;;;;;;;;;;;4714465;30;22524;-88
2022/10/14 11:14:45;;;;;;;;;;;;;;;;;;4738444;30;19988;-88
2022/10/14 11:17:11;;;;;;;;;;;;;;;;;;4711300;30;20375;-89
2022/10/14 11:19:39;;;;;;;;;;;;;;;;;;4710463;30;19938;-88
2022/10/14 11:22:05;;;;;;;;;;;;;;;;;;4693747;30;20647;-89
2022/10/14 11:24:39;;;;;;;;;;;;;;;;;;4716697;30;19989;-89
2022/10/14 11:27:08;;;;;;;;;;;;;;;;;;4711908;30;19969;-89
2022/10/14 11:29:34;;;;;;;;;;;;;;;;;;4702934;30;19934;-88
2022/10/14 11:32:03;;;;;;;;;;;;;;;;;;4712076;30;19997;-88
2022/10/14 11:34:38;;;;;;;;;;;;;;;;;;4714424;30;20059;-88
2022/10/14 11:37:04;;;;;;;;;;;;;;;;;;4730996;30;20025;-87
2022/10/14 11:39:30;;;;;;;;;;;;;;;;;;4712549;30;20396;-88
2022/10/14 11:42:00;;;;;;;;;;;;;;;;;;4712577;30;20037;-88
2022/10/14 11:44:26;;;;;;;;;;;;;;;;;;4724088;30;19925;-88
2022/10/14 11:46:52;;;;;;;;;;;;;;;;;;4723124;30;19929;-89
2022/10/14 11:49:18;;;;;;;;;;;;;;;;;;4704509;30;19969;-88
2022/10/14 11:51:47;;;;;;;;;;;;;;;;;;4723514;30;19933;-88
2022/10/14 11:54:13;;;;;;;;;;;;;;;;;;4713585;30;19934;-88
2022/10/14 11:56:40;;;;;;;;;;;;;;;;;;4736341;30;20271;-88
2022/10/14 11:59:06;;;;;;;;;;;;;;;;;;4719519;30;19937;-89
2022/10/14 12:01:34;;;;;;;;;;;;;;;;;;4725513;30;20024;-88
2022/10/14 12:04:02;;;;;;;;;;;;;;;;;;4731925;30;20439;-88
2022/10/14 12:06:30;;;;;;;;;;;;;;;;;;4741022;30;19933;-87
2022/10/14 12:08:57;;;;;;;;;;;;;;;;;;4730192;30;21145;-88
2022/10/14 12:11:25;;;;;;;;;;;;;;;;;;4734780;30;20463;-88
2022/10/14 12:13:54;;;;;;;;;;;;;;;;;;4741132;30;19926;-88
2022/10/14 12:16:20;;;;;;;;;;;;;;;;;;4720406;30;20016;-89
2022/10/14 12:18:55;;;;;;;;;;;;;;;;;;4746913;30;20349;-89
2022/10/14 12:21:21;;;;;;;;;;;;;;;;;;4733229;30;19937;-88
2022/10/14 12:23:50;;;;;;;;;;;;;;;;;;4736858;30;19933;-89
2022/10/14 12:26:18;;;;;;;;;;;;;;;;;;4734640;30;19934;-89
2022/10/14 12:28:44;;;;;;;;;;;;;;;;;;4734885;30;19972;-89
2022/10/14 12:31:10;;;;;;;;;;;;;;;;;;4728662;30;20028;-89
2022/10/14 12:33:36;;;;;;;;;;;;;;;;;;4736969;30;19926;-89
2022/10/14 12:36:03;;;;;;;;;;;;;;;;;;4733762;30;19968;-90
2022/10/14 12:38:29;;;;;;;;;;;;;;;;;;4736214;30;19934;-89
2022/10/14 12:40:55;;;;;;;;;;;;;;;;;;4730336;30;20903;-89
2022/10/14 12:43:23;;;;;;;;;;;;;;;;;;4736578;30;19991;-89
2022/10/14 12:45:57;;;;;;;;;;;;;;;;;;4741797;30;19933;-89
2022/10/14 12:48:23;;;;;;;;;;;;;;;;;;4745060;30;20362;-90
2022/10/14 12:50:52;;;;;;;;;;;;;;;;;;4725095;30;19930;-90
2022/10/14 12:53:19;;;;;;;;;;;;;;;;;;4736271;30;19932;-89
2022/10/14 12:55:47;;;;;;;;;;;;;;;;;;4732977;30;20281;-89
2022/10/14 12:58:19;;;;;;;;;;;;;;;;;;4734743;30;19930;-89
2022/10/14 13:00:45;;;;;;;;;;;;;;;;;;4735949;30;19973;-90
2022/10/14 13:03:29;;;;;;;;;;;;;;;;;;4731181;30;21738;-89
2022/10/14 13:06:13;;;;;;;;;;;;;;;;;;4733926;30;19937;-89
2022/10/14 13:08:42;;;;;;;;;;;;;;;;;;4732457;30;19989;-89
2022/10/14 13:11:14;;;;;;;;;;;;;;;;;;4733494;30;19930;-89
2022/10/14 13:16:38;;;;;;;;;;;;;;;;;;4728264;30;19930;-89
2022/10/14 13:19:04;;;;;;;;;;;;;;;;;;4735384;30;20020;-89
2022/10/14 13:21:33;;;;;;;;;;;;;;;;;;4739277;30;20340;-90
2022/10/14 13:24:02;;;;;;;;;;;;;;;;;;4733225;30;20364;-90
2022/10/14 13:26:33;;;;;;;;;;;;;;;;;;4737017;30;20279;-89
2022/10/14 13:29:05;;;;;;;;;;;;;;;;;;4735365;30;19930;-90
2022/10/14 13:34:33;;;;;;;;;;;;;;;;;;4732541;30;19934;-90
2022/10/14 13:37:01;;;;;;;;;;;;;;;;;;4737833;30;19934;-89
2022/10/14 13:39:37;;;;;;;;;;;;;;;;;;;;;
2022/10/14 13:42:14;;;;;;;;;;;;;;;;;;4729665;30;20378;-90
2022/10/14 13:44:40;;;;;;;;;;;;;;;;;;4738317;30;20017;-89
2022/10/14 13:47:12;;;;;;;;;;;;;;;;;;4751523;30;19934;-89
2022/10/14 13:49:40;;;;;;;;;;;;;;;;;;4737033;30;20274;-90
2022/10/14 13:52:07;;;;;;;;;;;;;;;;;;4734287;30;19941;-90
2022/10/14 13:54:39;;;;;;;;;;;;;;;;;;4734078;30;20012;-90
2022/10/14 13:57:05;;;;;;;;;;;;;;;;;;4756244;30;19934;-90
2022/10/14 13:59:38;;;;;;;;;;;;;;;;;;4742693;30;19926;-90
2022/10/14 14:02:14;;;;;;;;;;;;;;;;;;4731157;30;19979;-89
2022/10/14 14:04:40;;;;;;;;;;;;;;;;;;4739290;29;19949;-89
2022/10/14 14:07:09;;;;;;;;;;;;;;;;;;4732460;30;19937;-89
2022/10/14 14:09:47;;;;;;;;;;;;;;;;;;4740548;30;19979;-89
2022/10/14 14:12:20;;;;;;;;;;;;;;;;;;4730735;30;19934;-89
2022/10/14 14:14:47;;;;;;;;;;;;;;;;;;4733264;30;19930;-89
2022/10/14 14:17:13;;;;;;;;;;;;;;;;;;4736444;30;20032;-90
2022/10/14 14:19:49;;;;;;;;;;;;;;;;;;4743577;30;19930;-89
2022/10/14 14:22:30;;;;;;;;;;;;;;;;;;4735094;30;19933;-89
2022/10/14 14:25:09;;;;;;;;;;;;;;;;;;4732511;30;20291;-89
2022/10/14 14:27:48;;;;;;;;;;;;;;;;;;4757055;30;19934;-89
2022/10/14 14:30:14;;;;;;;;;;;;;;;;;;4732949;30;19972;-89
2022/10/14 14:32:46;;;;;;;;;;;;;;;;;;4734543;30;20294;-89
2022/10/14 14:35:23;;;;;;;;;;;;;;;;;;4714663;30;20501;-89
2022/10/14 14:37:54;;;;;;;;;;;;;;;;;;4720671;30;19969;-91
2022/10/14 14:40:25;;;;;;;;;;;;;;;;;;4735195;30;19941;-89
2022/10/14 14:42:54;;;;;;;;;;;;;;;;;;4732048;30;20357;-89
2022/10/14 14:45:20;;;;;;;;;;;;;;;;;;4716514;30;20371;-88
2022/10/14 14:47:52;;;;;;;;;;;;;;;;;;4728818;30;19929;-88
2022/10/14 14:50:21;;;;;;;;;;;;;;;;;;4727891;30;19991;-89
2022/10/14 14:52:56;;;;;;;;;;;;;;;;;;4736894;30;20297;-89
2022/10/14 14:55:24;;;;;;;;;;;;;;;;;;4730676;30;19926;-88
2022/10/14 14:57:50;;;;;;;;;;;;;;;;;;4717022;30;19934;-88
2022/10/14 15:00:22;;;;;;;;;;;;;;;;;;4716743;30;20386;-89
2022/10/14 15:02:57;;;;;;;;;;;;;;;;;;4714715;30;20314;-88
2022/10/14 15:05:25;;;;;;;;;;;;;;;;;;4712825;30;19983;-87
2022/10/14 15:07:59;;;;;;;;;;;;;;;;;;4714625;30;19940;-88
2022/10/14 15:10:29;;;;;;;;;;;;;;;;;;4703202;30;19934;-88
2022/10/14 15:12:55;;;;;;;;;;;;;;;;;;4711897;30;20685;-88
2022/10/14 15:15:33;;;;;;;;;;;;;;;;;;4712509;30;19937;-89
2022/10/14 15:17:59;;;;;;;;;;;;;;;;;;4695756;30;20056;-89
2022/10/14 15:20:25;;;;;;;;;;;;;;;;;;4736843;30;19941;-91
2022/10/14 15:23:09;;;;;;;;;;;;;;;;;;4717139;30;19936;-90
2022/10/14 15:29:26;;;;;;;;;;;;;;;;;;;;;
2022/10/14 15:32:34;;;;;;;;;;;;;;;;;;4594652;30;21199;-90
2022/10/14 15:35:07;;;;;;;;;;;;;;;;;;4654539;30;20603;-90
2022/10/14 15:37:35;;;;;;;;;;;;;;;;;;4706905;29;19990;-90
2022/10/14 15:40:04;;;;;;;;;;;;;;;;;;4712796;30;19938;-90
2022/10/14 15:42:30;;;;;;;;;;;;;;;;;;4720840;30;20016;-90
2022/10/14 15:45:02;;;;;;;;;;;;;;;;;;4714326;30;19941;-90
2022/10/14 15:47:31;;;;;;;;;;;;;;;;;;4707673;30;19940;-90
2022/10/14 15:49:59;;;;;;;;;;;;;;;;;;4714304;30;19934;-90
2022/10/14 15:52:29;;;;;;;;;;;;;;;;;;4729469;29;19938;-89
2022/10/14 15:54:57;;;;;;;;;;;;;;;;;;4716645;30;19992;-90
2022/10/14 15:57:23;;;;;;;;;;;;;;;;;;4717850;30;19963;-90
2022/10/14 16:02:43;;;;;;;;;;;;;;;;;;4704645;30;20092;-90
2022/10/14 16:05:09;;;;;;;;;;;;;;;;;;4716690;30;19991;-90
2022/10/14 16:07:35;;;;;;;;;;;;;;;;;;4711782;30;20298;-90
2022/10/14 16:10:04;;;;;;;;;;;;;;;;;;4703995;30;19934;-89
2022/10/14 16:12:33;;;;;;;;;;;;;;;;;;4702338;30;19933;-90
2022/10/14 16:15:02;;;;;;;;;;;;;;;;;;4709370;30;19941;-90
2022/10/14 16:17:28;;;;;;;;;;;;;;;;;;4717938;30;19934;-89
2022/10/14 16:19:57;;;;;;;;;;;;;;;;;;4713148;30;20060;-89
2022/10/14 16:22:23;;;;;;;;;;;;;;;;;;4717466;30;19934;-89
2022/10/14 16:24:56;;;;;;;;;;;;;;;;;;4717590;30;19942;-89
2022/10/14 16:27:23;;;;;;;;;;;;;;;;;;4712191;30;19934;-89
2022/10/14 16:29:49;;;;;;;;;;;;;;;;;;4722011;30;19969;-90
2022/10/14 16:32:25;;;;;;;;;;;;;;;;;;4714910;30;19997;-89
2022/10/14 16:35:00;;;;;;;;;;;;;;;;;;4714361;30;19930;-90
2022/10/14 16:37:29;;;;;;;;;;;;;;;;;;4722879;30;20003;-90
2022/10/14 16:40:04;;;;;;;;;;;;;;;;;;4703833;30;19940;-89
2022/10/14 16:42:37;;;;;;;;;;;;;;;;;;4723330;30;19926;-90
2022/10/14 16:45:11;;;;;;;;;;;;;;;;;;4733820;30;19937;-90
2022/10/14 16:47:46;;;;;;;;;;;;;;;;;;4718923;30;19934;-90
2022/10/14 16:50:18;;;;;;;;;;;;;;;;;;4731593;30;19951;-90
2022/10/14 16:55:32;;;;;;;;;;;;;;;;;;4722591;30;20278;-90
2022/10/14 16:58:00;;;;;;;;;;;;;;;;;;4709274;30;19936;-90
2022/10/14 17:00:26;;;;;;;;;;;;;;;;;;4718586;30;21229;-89
2022/10/14 17:02:58;;;;;;;;;;;;;;;;;;4711768;30;20302;-89
2022/10/14 17:05:30;;;;;;;;;;;;;;;;;;4731825;30;19934;-89
2022/10/14 17:08:01;;;;;;;;;;;;;;;;;;4706095;30;19936;-90
2022/10/14 17:10:43;;;;;;;;;;;;;;;;;;4725738;30;20056;-89
2022/10/14 17:13:16;;;;;;;;;;;;;;;;;;4713061;30;19930;-90
2022/10/14 17:15:42;;;;;;;;;;;;;;;;;;4718186;30;20302;-89
2022/10/14 17:18:18;;;;;;;;;;;;;;;;;;4729612;30;19941;-90
2022/10/14 17:20:46;;;;;;;;;;;;;;;;;;4722136;30;20144;-89
2022/10/14 17:23:15;;;;;;;;;;;;;;;;;;4715591;30;20008;-89
2022/10/14 17:25:45;;;;;;;;;;;;;;;;;;4720939;30;19977;-88
2022/10/14 17:28:14;;;;;;;;;;;;;;;;;;4691988;30;20842;-88
2022/10/14 17:30:40;;;;;;;;;;;;;;;;;;4719050;30;19931;-89
2022/10/14 17:33:15;;;;;;;;;;;;;;;;;;4712892;30;20359;-88
2022/10/14 17:35:40;;;;;;;;;;;;;;;;;;4731770;30;20515;-88
2022/10/14 17:38:07;;;;;;;;;;;;;;;;;;4715550;30;20200;-88
2022/10/14 17:40:35;;;;;;;;;;;;;;;;;;4718304;30;19930;-89
2022/10/14 17:43:01;;;;;;;;;;;;;;;;;;4696791;30;19938;-89
2022/10/14 17:45:30;;;;;;;;;;;;;;;;;;4722894;30;20776;-89
2022/10/14 17:47:56;;;;;;;;;;;;;;;;;;4694241;30;19935;-89
2022/10/14 17:50:22;;;;;;;;;;;;;;;;;;4719815;30;19937;-89
2022/10/14 17:53:10;;;;;;;;;;;;;;;;;;4716403;30;21488;-89
2022/10/14 17:55:38;;;;;;;;;;;;;;;;;;4719333;30;20410;-90
2022/10/14 17:58:04;;;;;;;;;;;;;;;;;;4710407;30;19938;-89
2022/10/14 18:00:33;;;;;;;;;;;;;;;;;;4705448;30;20400;-89
2022/10/14 18:03:01;;;;;;;;;;;;;;;;;;4698487;30;20520;-89
2022/10/14 18:05:28;;;;;;;;;;;;;;;;;;4719598;30;19930;-89
2022/10/14 18:07:56;;;;;;;;;;;;;;;;;;4697844;30;19934;-90
2022/10/14 18:10:22;;;;;;;;;;;;;;;;;;4719108;30;20068;-89
2022/10/14 18:13:06;;;;;;;;;;;;;;;;;;4700854;30;20383;-90
2022/10/14 18:15:35;;;;;;;;;;;;;;;;;;4699168;30;20494;-89
2022/10/14 18:18:01;;;;;;;;;;;;;;;;;;4698708;30;20013;-89